createdAt,value
2022-08-11T00:01:21.312Z,3.05
2022-08-11T00:04:44.879Z,2.90
2022-08-11T00:08:07.927Z,3.20
2022-08-11T00:11:36.354Z,2.60
2022-08-11T00:15:02.189Z,3.42
2022-08-11T00:18:27.230Z,2.88
2022-08-11T00:22:04.152Z,2.88
2022-08-11T00:25:29.501Z,3.20
2022-08-11T00:28:52.967Z,3.08
2022-08-11T00:32:16.681Z,2.88
2022-08-11T00:35:56.343Z,2.95
2022-08-11T00:39:29.051Z,3.58
2022-08-11T00:43:01.879Z,3.28
2022-08-11T00:46:41.281Z,3.20
2022-08-11T00:50:14.730Z,3.80
2022-08-11T00:53:49.929Z,3.92
2022-08-11T00:57:43.191Z,3.13
2022-08-11T01:01:11.880Z,3.40
2022-08-11T01:05:13.178Z,2.90
2022-08-11T01:09:17.978Z,3.08
2022-08-11T01:12:59.130Z,3.60
2022-08-11T01:16:53.774Z,2.97
2022-08-11T01:20:47.862Z,3.40
2022-08-11T01:25:03.861Z,3.30
2022-08-11T01:29:08.611Z,3.55
2022-08-11T01:33:13.114Z,3.25
2022-08-11T01:37:00.767Z,3.33
2022-08-11T01:40:53.344Z,3.58
2022-08-11T01:44:45.458Z,3.28
2022-08-11T01:48:15.708Z,3.35
2022-08-11T01:52:03.012Z,3.50
2022-08-11T01:55:34.833Z,3.65
2022-08-11T01:59:04.607Z,3.22
2022-08-11T02:02:48.528Z,3.13
2022-08-11T02:06:38.608Z,3.15
2022-08-11T02:10:36.680Z,3.58
2022-08-11T02:14:14.497Z,3.17
2022-08-11T02:17:49.733Z,3.53
2022-08-11T02:21:37.720Z,3.58
2022-08-11T02:25:03.871Z,3.22
2022-08-11T02:28:40.236Z,3.17
2022-08-11T02:32:34.656Z,3.28
2022-08-11T02:36:05.425Z,3.38
2022-08-11T02:39:39.247Z,3.30
2022-08-11T02:43:28.269Z,3.83
2022-08-11T02:46:59.764Z,2.88
2022-08-11T02:50:30.412Z,3.33
2022-08-11T02:54:09.808Z,2.92
2022-08-11T02:57:41.484Z,3.25
2022-08-11T03:01:13.874Z,3.38
2022-08-11T03:04:51.266Z,3.97
2022-08-11T03:08:37.097Z,2.83
2022-08-11T03:12:24.916Z,3.78
2022-08-11T03:16:14.556Z,3.25
2022-08-11T03:19:50.294Z,2.80
2022-08-11T03:23:20.682Z,2.95
2022-08-11T03:26:57.154Z,3.35
2022-08-11T03:30:26.527Z,2.80
2022-08-11T03:34:06.605Z,3.38
2022-08-11T03:37:51.822Z,3.50
2022-08-11T03:42:01.996Z,3.17
2022-08-11T03:45:35.257Z,3.15
2022-08-11T03:49:10.469Z,3.08
2022-08-11T03:52:48.957Z,3.83
2022-08-11T03:56:38.774Z,3.15
2022-08-11T04:00:39.413Z,3.00
2022-08-11T04:04:40.656Z,3.08
2022-08-11T04:08:25.726Z,3.33
2022-08-11T04:12:35.506Z,3.08
2022-08-11T04:16:17.566Z,3.13
2022-08-11T04:20:17.746Z,3.45
2022-08-11T04:24:38.366Z,3.22
2022-08-11T04:28:50.274Z,2.80
2022-08-11T04:32:37.484Z,3.60
2022-08-11T04:36:16.635Z,3.70
2022-08-11T04:39:51.881Z,3.08
2022-08-11T04:44:05.797Z,2.90
2022-08-11T04:48:21.494Z,3.17
2022-08-11T04:52:20.021Z,3.67
2022-08-11T04:56:27.464Z,3.08
2022-08-11T05:00:25.757Z,4.38
2022-08-11T05:04:33.469Z,4.00
2022-08-11T05:08:34.881Z,4.15
2022-08-11T05:12:31.036Z,3.90
2022-08-11T05:16:13.385Z,4.45
2022-08-11T05:19:55.691Z,4.10
2022-08-11T05:23:39.791Z,3.50
2022-08-11T05:27:22.573Z,3.75
2022-08-11T05:31:04.680Z,4.32
2022-08-11T05:34:48.946Z,3.55
2022-08-11T05:38:35.317Z,4.50
2022-08-11T05:42:29.812Z,4.38
2022-08-11T05:46:17.748Z,4.40
2022-08-11T05:49:59.279Z,4.72
2022-08-11T05:53:46.174Z,4.60
2022-08-11T05:57:43.894Z,5.97
2022-08-11T06:00:54.803Z,4.72
2022-08-11T06:04:20.823Z,4.63
2022-08-11T06:07:47.294Z,4.30
2022-08-11T06:11:14.777Z,3.75
2022-08-11T06:14:44.705Z,4.70
2022-08-11T06:18:14.821Z,4.35
2022-08-11T06:21:39.567Z,4.13
2022-08-11T06:25:20.382Z,4.30
2022-08-11T06:28:52.083Z,4.83
2022-08-11T06:32:16.586Z,5.15
2022-08-11T06:35:48.210Z,4.75
2022-08-11T06:39:21.995Z,4.28
2022-08-11T06:42:51.355Z,4.10
2022-08-11T06:46:28.143Z,4.25
2022-08-11T06:50:09.379Z,5.07
2022-08-11T06:53:35.921Z,4.60
2022-08-11T06:57:32.651Z,3.95
2022-08-11T07:00:59.738Z,4.97
2022-08-11T07:04:34.984Z,4.63
2022-08-11T07:08:55.012Z,4.50
2022-08-11T07:12:57.914Z,5.07
2022-08-11T07:16:34.748Z,5.32
2022-08-11T07:20:20.035Z,4.55
2022-08-11T07:24:00.645Z,4.90
2022-08-11T07:27:44.094Z,5.72
2022-08-11T07:31:14.091Z,4.55
2022-08-11T07:34:41.573Z,4.97
2022-08-11T07:38:11.630Z,4.90
2022-08-11T07:41:36.191Z,4.78
2022-08-11T07:45:17.836Z,4.60
2022-08-11T07:49:01.489Z,4.63
2022-08-11T07:52:33.483Z,4.80
2022-08-11T07:56:00.753Z,3.75
2022-08-11T08:00:00.393Z,4.32
2022-08-11T08:03:54.156Z,5.28
2022-08-11T08:07:39.652Z,4.93
2022-08-11T08:11:27.393Z,4.57
2022-08-11T08:15:08.808Z,5.00
2022-08-11T08:18:35.577Z,4.45
2022-08-11T08:22:04.392Z,4.90
2022-08-11T08:25:44.969Z,4.65
2022-08-11T08:29:27.250Z,5.13
2022-08-11T08:32:51.572Z,5.50
2022-08-11T08:36:17.029Z,4.82
2022-08-11T08:39:40.535Z,5.88
2022-08-11T08:43:09.768Z,5.32
2022-08-11T08:46:38.129Z,4.97
2022-08-11T08:50:05.522Z,5.32
2022-08-11T08:53:33.307Z,5.45
2022-08-11T08:56:58.419Z,5.50
2022-08-11T09:00:23.555Z,5.97
2022-08-11T09:04:06.943Z,6.05
2022-08-11T09:07:39.141Z,6.47
2022-08-11T09:11:21.994Z,5.15
2022-08-11T09:15:04.446Z,5.63
2022-08-11T09:18:33.540Z,5.38
2022-08-11T09:22:12.121Z,6.15
2022-08-11T09:25:53.036Z,6.05
2022-08-11T09:29:16.182Z,6.15
2022-08-11T09:32:40.384Z,7.70
2022-08-11T09:36:24.895Z,8.25
2022-08-11T09:40:06.897Z,8.18
2022-08-11T09:43:48.119Z,7.43
2022-08-11T09:47:14.989Z,7.78
2022-08-11T09:50:40.228Z,6.22
2022-08-11T09:54:06.696Z,6.60
2022-08-11T09:57:48.497Z,6.45
2022-08-11T10:01:27.122Z,5.70
2022-08-11T10:04:52.753Z,5.95
2022-08-11T10:08:18.750Z,5.70
2022-08-11T10:11:43.097Z,5.18
2022-08-11T10:15:38.220Z,4.32
2022-08-11T10:19:04.235Z,4.38
2022-08-11T10:22:45.586Z,4.85
2022-08-11T10:30:26.251Z,4.70
2022-08-11T10:34:03.354Z,4.38
2022-08-11T10:38:08.084Z,4.75
2022-08-11T10:41:28.434Z,4.25
2022-08-11T10:44:54.336Z,4.75
2022-08-11T10:48:18.321Z,4.80
2022-08-11T10:52:00.699Z,4.68
2022-08-11T10:55:42.474Z,4.85
2022-08-11T10:59:09.568Z,4.50
2022-08-11T11:02:33.066Z,4.63
2022-08-11T11:06:12.597Z,5.10
2022-08-11T11:09:52.014Z,5.13
2022-08-11T11:13:32.549Z,5.75
2022-08-11T11:17:15.130Z,4.57
2022-08-11T11:20:46.687Z,5.60
2022-08-11T11:24:17.447Z,5.90
2022-08-11T11:27:53.488Z,4.97
2022-08-11T11:31:28.130Z,4.88
2022-08-11T11:35:18.175Z,5.18
2022-08-11T11:38:42.407Z,4.88
2022-08-11T11:42:07.920Z,5.35
2022-08-11T11:45:32.721Z,5.30
2022-08-11T11:48:56.757Z,4.75
2022-08-11T11:52:22.003Z,4.57
2022-08-11T11:55:45.793Z,4.13
2022-08-11T11:59:27.431Z,5.28
2022-08-11T12:02:52.840Z,4.65
2022-08-11T12:06:16.415Z,4.75
2022-08-11T12:09:41.173Z,5.15
2022-08-11T12:13:21.689Z,4.60
2022-08-11T12:16:47.292Z,5.20
2022-08-11T12:20:32.155Z,4.43
2022-08-11T12:24:16.579Z,5.10
2022-08-11T12:27:40.584Z,5.03
2022-08-11T12:31:05.625Z,3.92
2022-08-11T12:34:29.494Z,4.85
2022-08-11T12:38:02.622Z,4.13
2022-08-11T12:41:47.554Z,3.83
2022-08-11T12:45:29.411Z,4.43
2022-08-11T12:49:15.379Z,3.75
2022-08-11T12:52:45.039Z,4.55
2022-08-11T12:56:32.165Z,4.05
2022-08-11T13:00:14.097Z,4.07
2022-08-11T13:03:56.799Z,4.32
2022-08-11T13:07:20.529Z,4.50
2022-08-11T13:11:01.875Z,3.90
2022-08-11T13:14:26.889Z,4.20
2022-08-11T13:17:51.554Z,4.30
2022-08-11T13:21:20.616Z,4.45
2022-08-11T13:24:45.203Z,4.68
2022-08-11T13:28:08.573Z,3.97
2022-08-11T13:31:34.690Z,4.07
2022-08-11T13:34:57.807Z,3.92
2022-08-11T13:38:24.205Z,3.67
2022-08-11T13:41:48.487Z,4.15
2022-08-11T13:45:12.499Z,4.70
2022-08-11T13:48:39.018Z,3.83
2022-08-11T13:52:03.224Z,3.80
2022-08-11T13:55:45.121Z,4.18
2022-08-11T13:59:10.290Z,4.03
2022-08-11T14:02:33.478Z,4.30
2022-08-11T14:06:02.237Z,3.75
2022-08-11T14:09:28.556Z,3.97
2022-08-11T14:13:15.872Z,3.55
2022-08-11T14:16:44.064Z,4.28
2022-08-11T14:20:40.183Z,3.97
2022-08-11T14:23:59.265Z,3.85
2022-08-11T14:28:35.128Z,3.83
2022-08-11T14:31:16.459Z,3.88
2022-08-11T14:34:42.879Z,3.80
2022-08-11T14:38:06.020Z,4.07
2022-08-11T14:42:11.190Z,3.80
2022-08-11T14:45:54.201Z,3.78
2022-08-11T14:49:22.034Z,3.58
2022-08-11T14:52:50.163Z,4.10
2022-08-11T14:56:30.728Z,3.17
2022-08-11T14:59:59.085Z,3.42
2022-08-11T15:03:27.671Z,3.35
2022-08-11T15:06:52.070Z,3.55
2022-08-11T15:10:18.891Z,4.60
2022-08-11T15:13:41.958Z,3.38
2022-08-11T15:17:12.627Z,3.20
2022-08-11T15:20:59.664Z,4.03
2022-08-11T15:24:24.079Z,3.72
2022-08-11T15:28:12.323Z,3.72
2022-08-11T15:31:55.149Z,3.60
2022-08-11T15:35:39.207Z,3.20
2022-08-11T15:39:07.840Z,3.60
2022-08-11T15:42:51.054Z,4.28
2022-08-11T15:46:17.627Z,3.70
2022-08-11T15:50:11.778Z,3.67
2022-08-11T15:53:33.469Z,3.53
2022-08-11T15:56:57.449Z,3.92
2022-08-11T16:00:38.559Z,3.75
2022-08-11T16:04:14.169Z,3.90
2022-08-11T16:07:40.777Z,3.65
2022-08-11T16:11:08.822Z,3.67
2022-08-11T16:14:54.808Z,3.80
2022-08-11T16:18:21.751Z,3.47
2022-08-11T16:21:45.728Z,4.10
2022-08-11T16:27:03.506Z,3.20
2022-08-11T16:28:58.476Z,3.50
2022-08-11T16:32:24.178Z,3.10
2022-08-11T16:36:06.488Z,3.22
2022-08-11T16:39:31.109Z,3.20
2022-08-11T16:43:13.474Z,3.30
2022-08-11T16:46:55.639Z,3.60
2022-08-11T16:50:23.436Z,3.25
2022-08-11T16:54:04.594Z,3.67
2022-08-11T16:57:46.948Z,3.35
2022-08-11T17:01:16.565Z,3.42
2022-08-11T17:05:08.586Z,3.13
2022-08-11T17:08:55.895Z,3.30
2022-08-11T17:12:41.336Z,3.15
2022-08-11T17:16:11.697Z,3.15
2022-08-11T17:20:43.430Z,3.50
2022-08-11T17:23:40.964Z,3.95
2022-08-11T17:27:07.500Z,3.70
2022-08-11T17:30:45.503Z,3.13
2022-08-11T17:34:26.976Z,3.30
2022-08-11T17:37:53.461Z,2.90
2022-08-11T17:41:36.383Z,3.22
2022-08-11T17:45:18.054Z,3.15
2022-08-11T17:48:47.602Z,3.10
2022-08-11T17:52:35.542Z,3.13
2022-08-11T17:56:17.011Z,3.03
2022-08-11T17:59:56.782Z,2.70
2022-08-11T18:03:39.444Z,2.92
2022-08-11T18:07:02.660Z,3.08
2022-08-11T18:10:43.871Z,3.33
2022-08-11T18:14:27.489Z,3.90
2022-08-11T18:18:09.298Z,3.90
2022-08-11T18:22:08.305Z,4.18
2022-08-11T18:25:53.264Z,3.55
2022-08-11T18:29:40.342Z,3.78
2022-08-11T18:37:32.353Z,3.70
2022-08-11T18:41:13.235Z,4.00
2022-08-11T18:44:57.506Z,3.30
2022-08-11T18:48:42.285Z,3.60
2022-08-11T18:52:24.720Z,3.83
2022-08-11T18:56:07.353Z,3.78
2022-08-11T18:59:53.909Z,4.53
2022-08-11T19:03:43.467Z,4.57
2022-08-11T19:07:37.373Z,5.32
2022-08-11T19:11:19.749Z,5.43
2022-08-11T19:15:06.174Z,5.20
2022-08-11T19:18:48.636Z,5.70
2022-08-11T19:22:32.139Z,5.90
2022-08-11T19:26:14.353Z,5.50
2022-08-11T19:30:07.385Z,6.05
2022-08-11T19:34:00.163Z,6.00
2022-08-11T19:37:54.438Z,6.47
2022-08-11T19:41:56.192Z,6.30
2022-08-11T19:45:37.024Z,5.82
2022-08-11T19:49:19.361Z,7.00
2022-08-11T19:53:02.610Z,5.97
2022-08-11T19:57:00.719Z,5.93
2022-08-11T20:00:42.714Z,6.05
2022-08-11T20:04:25.516Z,5.57
2022-08-11T20:08:09.623Z,6.20
2022-08-11T20:11:53.454Z,5.97
2022-08-11T20:15:36.834Z,6.68
2022-08-11T20:19:19.979Z,6.63
2022-08-11T20:23:09.951Z,7.05
2022-08-11T20:26:52.769Z,6.80
2022-08-11T20:30:33.642Z,6.60
2022-08-11T20:34:15.029Z,6.25
2022-08-11T20:37:57.650Z,6.05
2022-08-11T20:41:49.269Z,6.95
2022-08-11T20:45:53.493Z,6.47
2022-08-11T20:49:44.348Z,6.68
2022-08-11T20:53:35.661Z,6.13
2022-08-11T20:57:18.640Z,6.45
2022-08-11T21:00:59.417Z,6.45
2022-08-11T21:04:53.986Z,7.03
2022-08-11T21:08:37.002Z,6.05
2022-08-11T21:12:20.894Z,7.00
2022-08-11T21:16:03.505Z,6.63
2022-08-11T21:19:54.615Z,6.50
2022-08-11T21:23:43.235Z,6.90
2022-08-11T21:27:27.451Z,6.15
2022-08-11T21:31:08.867Z,6.20
2022-08-11T21:34:50.885Z,5.90
2022-08-11T21:38:31.877Z,5.78
2022-08-11T21:42:13.376Z,6.10
2022-08-11T21:45:57.509Z,6.18
2022-08-11T21:49:39.691Z,5.68
2022-08-11T21:53:20.711Z,5.78
2022-08-11T21:57:02.327Z,5.75
2022-08-11T22:00:42.946Z,6.03
2022-08-11T22:04:25.936Z,5.50
2022-08-11T22:08:06.562Z,5.40
2022-08-11T22:11:47.523Z,5.57
2022-08-11T22:15:28.753Z,5.63
2022-08-11T22:19:10.234Z,5.38
2022-08-11T22:22:53.954Z,5.72
2022-08-11T22:26:35.118Z,5.70
2022-08-11T22:30:19.992Z,5.38
2022-08-11T22:34:02.948Z,5.75
2022-08-11T22:37:45.349Z,5.00
2022-08-11T22:41:27.361Z,5.60
2022-08-11T22:45:07.638Z,5.00
2022-08-11T22:48:49.025Z,5.10
2022-08-11T22:52:30.870Z,5.85
2022-08-11T22:56:11.653Z,4.65
2022-08-11T22:59:54.876Z,5.50
2022-08-11T23:03:38.601Z,5.45
2022-08-11T23:07:50.756Z,5.13
2022-08-11T23:11:21.520Z,5.85
2022-08-11T23:15:03.918Z,5.38
2022-08-11T23:18:45.386Z,5.22
2022-08-11T23:22:49.207Z,5.43
2022-08-11T23:26:28.565Z,5.60
2022-08-11T23:30:16.943Z,4.80
2022-08-11T23:34:03.417Z,5.38
2022-08-11T23:37:44.189Z,5.47
2022-08-11T23:41:25.205Z,5.40
2022-08-11T23:45:05.585Z,5.30
2022-08-11T23:48:52.448Z,5.32
2022-08-11T23:52:34.846Z,5.35
2022-08-11T23:56:15.875Z,5.65
2022-08-11T23:59:56.456Z,5.20
